createdAt,value
2019-03-26T00:00:59.209Z,20.90
2019-03-26T00:03:28.171Z,29.10
2019-03-26T00:05:56.860Z,20.92
2019-03-26T00:08:25.545Z,24.77
2019-03-26T00:10:54.173Z,23.83
2019-03-26T00:13:22.854Z,26.80
2019-03-26T00:15:51.536Z,20.65
2019-03-26T00:18:20.218Z,24.18
2019-03-26T00:20:48.888Z,18.67
2019-03-26T00:23:17.590Z,23.30
2019-03-26T00:25:46.262Z,20.15
2019-03-26T00:28:14.938Z,24.98
2019-03-26T00:30:43.620Z,25.75
2019-03-26T00:33:12.223Z,22.65
2019-03-26T00:35:40.896Z,26.80
2019-03-26T00:38:09.507Z,21.25
2019-03-26T00:40:40.143Z,18.87
2019-03-26T00:43:08.917Z,25.02
2019-03-26T00:45:37.504Z,28.12
2019-03-26T00:48:06.111Z,24.25
2019-03-26T00:50:34.714Z,22.93
2019-03-26T00:53:03.402Z,16.73
2019-03-26T00:55:32.000Z,27.45
2019-03-26T00:58:01.753Z,31.20
2019-03-26T01:00:38.532Z,25.65
2019-03-26T01:03:07.490Z,26.57
2019-03-26T01:05:36.088Z,27.40
2019-03-26T01:08:04.759Z,29.95
2019-03-26T01:10:33.374Z,29.95
2019-03-26T01:13:02.053Z,22.95
2019-03-26T01:15:30.736Z,20.80
2019-03-26T01:17:59.340Z,24.02
2019-03-26T01:20:27.985Z,23.98
2019-03-26T01:22:56.647Z,20.85
2019-03-26T01:25:25.237Z,21.70
2019-03-26T01:27:53.849Z,18.75
2019-03-26T01:30:22.526Z,31.40
2019-03-26T01:32:51.208Z,23.22
2019-03-26T01:35:19.884Z,29.72
2019-03-26T01:37:48.517Z,21.60
2019-03-26T01:40:17.119Z,25.25
2019-03-26T01:42:45.732Z,27.82
2019-03-26T01:45:14.357Z,20.02
2019-03-26T01:47:43.042Z,28.23
2019-03-26T01:50:11.769Z,27.95
2019-03-26T01:52:40.453Z,24.98
2019-03-26T01:55:09.141Z,26.12
2019-03-26T01:57:37.798Z,26.75
2019-03-26T02:00:06.395Z,29.50
2019-03-26T02:02:35.088Z,23.10
2019-03-26T02:05:05.046Z,22.30
2019-03-26T02:07:34.065Z,35.83
2019-03-26T02:10:02.752Z,34.48
2019-03-26T02:12:31.463Z,29.48
2019-03-26T02:15:00.145Z,27.95
2019-03-26T02:17:28.756Z,32.45
2019-03-26T02:19:57.435Z,32.75
2019-03-26T02:22:26.027Z,27.95
2019-03-26T02:24:54.632Z,34.05
2019-03-26T02:27:23.317Z,34.38
2019-03-26T02:29:51.979Z,35.95
2019-03-26T02:32:20.601Z,34.53
2019-03-26T02:34:49.278Z,37.13
2019-03-26T02:37:17.952Z,32.93
2019-03-26T02:39:46.629Z,42.67
2019-03-26T02:42:15.363Z,35.20
2019-03-26T02:44:44.101Z,46.68
2019-03-26T02:47:12.810Z,40.08
2019-03-26T02:49:41.492Z,44.80
2019-03-26T02:52:10.118Z,35.28
2019-03-26T02:54:38.798Z,35.43
2019-03-26T02:57:07.565Z,37.63
2019-03-26T02:59:36.272Z,33.70
2019-03-26T03:02:04.983Z,38.60
2019-03-26T03:04:33.659Z,33.73
2019-03-26T03:07:02.325Z,40.00
2019-03-26T03:09:31.041Z,36.23
2019-03-26T03:11:59.642Z,35.35
2019-03-26T03:14:28.330Z,47.78
2019-03-26T03:16:57.034Z,39.48
2019-03-26T03:19:25.728Z,32.28
2019-03-26T03:21:54.387Z,30.92
2019-03-26T03:24:22.973Z,34.63
2019-03-26T03:26:51.660Z,38.08
2019-03-26T03:29:20.331Z,42.43
2019-03-26T03:31:48.949Z,37.35
2019-03-26T03:34:17.714Z,39.38
2019-03-26T03:36:46.417Z,34.43
2019-03-26T03:39:15.093Z,21.70
2019-03-26T03:41:43.765Z,25.80
2019-03-26T03:44:12.377Z,34.03
2019-03-26T03:46:41.328Z,36.80
2019-03-26T03:49:09.731Z,30.25
2019-03-26T03:51:38.426Z,28.45
2019-03-26T03:54:07.141Z,33.55
2019-03-26T03:56:35.818Z,33.53
2019-03-26T03:59:04.592Z,24.60
2019-03-26T04:01:33.011Z,38.40
2019-03-26T04:04:01.654Z,34.43
2019-03-26T04:06:30.262Z,31.35
2019-03-26T04:08:58.849Z,32.35
2019-03-26T04:11:27.588Z,32.23
2019-03-26T04:13:56.254Z,29.55
2019-03-26T04:16:24.905Z,34.13
2019-03-26T04:18:53.524Z,75.35
2019-03-26T04:21:22.209Z,40.08
2019-03-26T04:23:50.913Z,34.15
2019-03-26T04:26:19.579Z,29.20
2019-03-26T04:28:48.246Z,36.98
2019-03-26T04:31:16.931Z,27.30
2019-03-26T04:33:45.641Z,30.52
2019-03-26T04:36:25.691Z,29.75
2019-03-26T04:38:44.872Z,25.20
2019-03-26T04:41:13.569Z,32.40
2019-03-26T04:43:42.271Z,36.65
2019-03-26T04:46:10.968Z,30.70
2019-03-26T04:48:39.634Z,28.67
2019-03-26T04:51:08.268Z,33.65
2019-03-26T04:53:36.937Z,27.90
2019-03-26T04:56:05.534Z,33.65
2019-03-26T04:58:34.178Z,32.33
2019-03-26T05:01:02.834Z,31.25
2019-03-26T05:03:31.540Z,33.88
2019-03-26T05:06:00.323Z,36.13
2019-03-26T05:08:29.006Z,25.65
2019-03-26T05:10:57.714Z,32.83
2019-03-26T05:13:26.380Z,32.30
2019-03-26T05:15:55.047Z,34.33
2019-03-26T05:18:23.773Z,24.65
2019-03-26T05:20:52.451Z,22.55
2019-03-26T05:23:21.165Z,30.55
2019-03-26T05:25:49.761Z,24.55
2019-03-26T05:28:18.429Z,17.15
2019-03-26T05:30:47.036Z,23.95
2019-03-26T05:33:15.705Z,23.95
2019-03-26T05:35:44.403Z,22.52
2019-03-26T05:38:13.096Z,17.95
2019-03-26T05:40:41.701Z,19.07
2019-03-26T05:43:10.354Z,19.73
2019-03-26T05:45:38.975Z,24.30
2019-03-26T05:48:07.652Z,17.95
2019-03-26T05:50:36.264Z,19.15
2019-03-26T05:53:04.893Z,18.73
2019-03-26T05:55:33.569Z,22.60
2019-03-26T05:58:02.283Z,23.40
2019-03-26T06:00:30.958Z,18.45
2019-03-26T06:02:59.630Z,18.40
2019-03-26T06:05:28.367Z,19.00
2019-03-26T06:07:56.977Z,18.12
2019-03-26T06:10:25.655Z,19.23
2019-03-26T06:12:54.348Z,21.17
2019-03-26T06:15:22.971Z,22.40
2019-03-26T06:17:51.634Z,26.37
2019-03-26T06:20:20.265Z,29.98
2019-03-26T06:22:48.957Z,21.40
2019-03-26T06:25:17.634Z,25.10
2019-03-26T06:27:46.352Z,21.20
2019-03-26T06:30:15.297Z,24.12
2019-03-26T06:32:43.613Z,22.58
2019-03-26T06:35:12.229Z,16.77
2019-03-26T06:37:40.838Z,19.92
2019-03-26T06:40:10.181Z,19.40
2019-03-26T06:42:39.191Z,19.10
2019-03-26T06:45:08.812Z,17.45
2019-03-26T06:47:37.698Z,27.27
2019-03-26T06:50:08.593Z,22.82
2019-03-26T06:52:37.650Z,20.92
2019-03-26T06:55:07.033Z,17.02
2019-03-26T06:57:36.667Z,20.32
2019-03-26T07:00:07.455Z,18.23
2019-03-26T07:02:37.002Z,19.80
2019-03-26T07:05:06.005Z,17.75
2019-03-26T07:07:34.608Z,17.35
2019-03-26T07:10:05.216Z,22.90
2019-03-26T07:12:34.155Z,23.25
2019-03-26T07:15:02.825Z,22.75
2019-03-26T07:17:31.502Z,24.18
2019-03-26T07:20:00.366Z,19.05
2019-03-26T07:24:56.573Z,23.83
2019-03-26T07:27:25.199Z,11.93
2019-03-26T07:29:53.797Z,20.43
2019-03-26T07:32:22.413Z,24.45
2019-03-26T07:34:51.105Z,24.72
2019-03-26T07:37:19.765Z,22.25
2019-03-26T07:39:48.403Z,17.90
2019-03-26T07:42:16.997Z,31.77
2019-03-26T07:44:45.708Z,22.40
2019-03-26T07:47:14.392Z,32.63
2019-03-26T07:49:43.075Z,20.02
2019-03-26T07:52:11.753Z,24.80
2019-03-26T07:54:40.359Z,23.92
2019-03-26T07:57:08.969Z,23.80
2019-03-26T07:59:37.593Z,24.45
2019-03-26T08:02:06.261Z,23.83
2019-03-26T08:04:34.939Z,21.40
2019-03-26T08:07:03.557Z,19.90
2019-03-26T08:09:32.271Z,26.45
2019-03-26T08:12:01.109Z,27.98
2019-03-26T08:14:29.714Z,19.65
2019-03-26T08:16:58.339Z,15.08
2019-03-26T08:19:27.022Z,15.65
2019-03-26T08:21:55.621Z,26.00
2019-03-26T08:24:24.238Z,20.12
2019-03-26T08:26:52.862Z,15.78
2019-03-26T08:29:21.535Z,22.15
2019-03-26T08:31:50.246Z,16.82
2019-03-26T08:34:18.917Z,20.52
2019-03-26T08:36:47.616Z,23.92
2019-03-26T08:39:16.216Z,15.40
2019-03-26T08:41:44.886Z,24.25
2019-03-26T08:44:13.589Z,41.28
2019-03-26T08:46:42.265Z,22.98
2019-03-26T08:49:14.074Z,17.70
2019-03-26T08:51:41.590Z,19.12
2019-03-26T08:54:10.221Z,16.27
2019-03-26T08:56:38.862Z,22.50
2019-03-26T08:59:07.536Z,25.62
2019-03-26T09:01:36.165Z,20.30
2019-03-26T09:04:04.841Z,18.85
2019-03-26T09:06:33.547Z,15.68
2019-03-26T09:09:02.232Z,17.15
2019-03-26T09:11:30.857Z,17.20
2019-03-26T09:13:59.621Z,17.87
2019-03-26T09:16:28.357Z,17.90
2019-03-26T09:18:57.022Z,14.75
2019-03-26T09:21:25.714Z,15.80
2019-03-26T09:23:54.382Z,16.52
2019-03-26T09:26:23.076Z,14.15
2019-03-26T09:28:51.677Z,13.53
2019-03-26T09:31:20.364Z,20.50
2019-03-26T09:33:48.967Z,16.25
2019-03-26T09:36:17.662Z,12.70
2019-03-26T09:38:46.349Z,14.10
2019-03-26T09:41:15.087Z,12.35
2019-03-26T09:43:43.764Z,11.03
2019-03-26T09:46:12.395Z,10.15
2019-03-26T09:48:41.069Z,22.67
2019-03-26T09:51:10.973Z,10.80
2019-03-26T09:53:40.117Z,10.08
2019-03-26T09:56:08.731Z,7.95
2019-03-26T09:58:37.401Z,20.25
2019-03-26T10:01:06.077Z,8.18
2019-03-26T10:03:34.660Z,8.35
2019-03-26T10:06:03.342Z,10.95
2019-03-26T10:08:31.957Z,10.98
2019-03-26T10:11:00.632Z,12.18
2019-03-26T10:13:29.240Z,9.68
2019-03-26T10:15:57.901Z,11.22
2019-03-26T10:18:26.595Z,9.18
2019-03-26T10:20:55.257Z,11.08
2019-03-26T10:23:23.944Z,11.12
2019-03-26T10:25:52.614Z,11.97
2019-03-26T10:28:21.317Z,12.18
2019-03-26T10:30:49.989Z,12.73
2019-03-26T10:33:18.679Z,13.35
2019-03-26T10:35:47.309Z,12.75
2019-03-26T10:38:16.026Z,10.63
2019-03-26T10:40:44.690Z,8.28
2019-03-26T10:43:13.318Z,14.00
2019-03-26T10:45:41.978Z,9.68
2019-03-26T10:48:10.591Z,25.15
2019-03-26T10:50:39.208Z,16.67
2019-03-26T10:53:07.903Z,16.55
2019-03-26T10:55:36.611Z,11.55
2019-03-26T10:58:05.278Z,12.23
2019-03-26T11:00:33.945Z,12.25
2019-03-26T11:03:02.635Z,12.03
2019-03-26T11:05:31.231Z,13.08
2019-03-26T11:07:59.924Z,9.55
2019-03-26T11:10:28.595Z,13.85
2019-03-26T11:12:57.569Z,12.82
2019-03-26T11:15:25.948Z,14.60
2019-03-26T11:17:54.576Z,15.68
2019-03-26T11:20:23.253Z,9.68
2019-03-26T11:22:51.914Z,7.47
2019-03-26T11:25:20.587Z,9.00
2019-03-26T11:27:49.260Z,8.23
2019-03-26T11:30:18.178Z,13.15
2019-03-26T11:35:14.210Z,15.93
2019-03-26T11:37:42.820Z,7.17
2019-03-26T11:40:11.424Z,12.15
2019-03-26T11:42:40.122Z,9.28
2019-03-26T11:45:08.952Z,8.93
2019-03-26T11:47:38.900Z,10.18
2019-03-26T11:50:09.563Z,13.00
2019-03-26T11:52:39.568Z,11.57
2019-03-26T11:55:09.808Z,13.45
2019-03-26T11:57:38.757Z,7.92
2019-03-26T12:00:08.868Z,9.30
2019-03-26T12:02:37.830Z,8.53
2019-03-26T12:05:07.597Z,7.65
2019-03-26T12:07:37.127Z,10.35
2019-03-26T12:10:07.646Z,7.95
2019-03-26T12:12:36.600Z,9.58
2019-03-26T12:15:06.922Z,8.65
2019-03-26T12:17:35.798Z,5.65
2019-03-26T12:20:06.339Z,5.15
2019-03-26T12:22:35.275Z,6.83
2019-03-26T12:25:05.624Z,7.97
2019-03-26T12:27:36.510Z,6.87
2019-03-26T12:30:07.399Z,8.75
2019-03-26T12:32:36.297Z,11.22
2019-03-26T12:35:07.074Z,7.37
2019-03-26T12:37:36.054Z,7.30
2019-03-26T12:40:07.059Z,6.20
2019-03-26T12:42:36.013Z,6.45
2019-03-26T12:45:07.185Z,8.50
2019-03-26T12:47:36.294Z,7.65
2019-03-26T12:50:06.825Z,7.47
2019-03-26T12:52:35.784Z,5.60
2019-03-26T12:55:05.793Z,7.83
2019-03-26T12:57:34.772Z,8.73
2019-03-26T13:00:04.324Z,8.15
2019-03-26T13:02:35.777Z,5.78
2019-03-26T13:05:05.783Z,4.40
2019-03-26T13:07:34.761Z,8.48
2019-03-26T13:10:13.478Z,8.93
2019-03-26T13:12:38.112Z,7.65
2019-03-26T13:15:07.792Z,6.62
2019-03-26T13:17:36.750Z,9.90
2019-03-26T13:20:06.424Z,9.03
2019-03-26T13:22:35.383Z,8.50
2019-03-26T13:25:08.386Z,8.18
2019-03-26T13:27:37.370Z,8.70
2019-03-26T13:30:06.387Z,9.15
2019-03-26T13:35:02.766Z,7.53
2019-03-26T13:37:31.566Z,9.83
2019-03-26T13:40:00.378Z,5.60
2019-03-26T13:42:28.831Z,6.12
2019-03-26T13:44:57.437Z,8.23
2019-03-26T13:47:26.109Z,9.55
2019-03-26T13:49:54.721Z,9.28
2019-03-26T13:52:23.313Z,12.00
2019-03-26T13:54:51.912Z,9.73
2019-03-26T13:57:20.521Z,6.78
2019-03-26T13:59:49.261Z,9.68
2019-03-26T14:02:17.886Z,10.90
2019-03-26T14:04:46.485Z,11.93
2019-03-26T14:07:15.185Z,10.50
2019-03-26T14:09:43.855Z,10.25
2019-03-26T14:12:12.553Z,11.18
2019-03-26T14:14:41.206Z,7.97
2019-03-26T14:17:09.829Z,8.78
2019-03-26T14:19:38.524Z,13.32
2019-03-26T14:22:07.217Z,8.85
2019-03-26T14:24:35.816Z,9.63
2019-03-26T14:27:04.495Z,10.75
2019-03-26T14:29:33.084Z,5.12
2019-03-26T14:32:01.714Z,13.15
2019-03-26T14:34:30.427Z,11.00
2019-03-26T14:36:59.117Z,9.68
2019-03-26T14:39:27.710Z,9.53
2019-03-26T14:41:56.402Z,9.60
2019-03-26T14:44:25.075Z,7.83
2019-03-26T14:46:53.756Z,7.12
2019-03-26T14:49:22.355Z,7.55
2019-03-26T14:51:51.048Z,11.38
2019-03-26T14:54:19.729Z,12.20
2019-03-26T14:56:48.414Z,7.20
2019-03-26T14:59:17.094Z,9.95
2019-03-26T15:01:45.740Z,10.10
2019-03-26T15:04:14.470Z,12.50
2019-03-26T15:06:43.088Z,9.80
2019-03-26T15:09:11.753Z,8.33
2019-03-26T15:11:40.476Z,14.28
2019-03-26T15:14:09.153Z,11.03
2019-03-26T15:16:37.828Z,8.45
2019-03-26T15:19:06.490Z,11.65
2019-03-26T15:21:35.124Z,12.88
2019-03-26T15:24:03.785Z,9.90
2019-03-26T15:26:32.454Z,10.08
2019-03-26T15:29:01.159Z,16.20
2019-03-26T15:31:29.760Z,8.28
2019-03-26T15:33:58.378Z,8.25
2019-03-26T15:36:27.049Z,11.80
2019-03-26T15:38:55.670Z,10.20
2019-03-26T15:41:24.330Z,8.15
2019-03-26T15:43:52.932Z,7.78
2019-03-26T15:46:21.512Z,6.53
2019-03-26T15:48:50.128Z,14.10
2019-03-26T15:51:18.754Z,10.55
2019-03-26T15:53:47.442Z,5.80
2019-03-26T15:56:16.110Z,4.90
2019-03-26T15:58:44.734Z,6.60
2019-03-26T16:01:13.386Z,4.58
2019-03-26T16:03:42.002Z,2.98
2019-03-26T16:06:10.603Z,7.97
2019-03-26T16:08:39.273Z,3.10
2019-03-26T16:11:07.951Z,3.60
2019-03-26T16:13:36.555Z,4.83
2019-03-26T16:16:05.231Z,3.58
2019-03-26T16:18:33.922Z,2.52
2019-03-26T16:21:02.514Z,3.35
2019-03-26T16:23:31.153Z,2.98
2019-03-26T16:25:59.804Z,3.02
2019-03-26T16:28:28.416Z,4.33
2019-03-26T16:30:57.094Z,3.50
2019-03-26T16:33:25.685Z,1.45
2019-03-26T16:35:54.370Z,5.47
2019-03-26T16:38:23.042Z,2.77
2019-03-26T16:40:51.724Z,3.92
2019-03-26T16:43:20.364Z,3.17
2019-03-26T16:45:49.124Z,2.50
2019-03-26T16:48:17.815Z,11.08
2019-03-26T16:50:46.402Z,6.05
2019-03-26T16:53:15.019Z,4.58
2019-03-26T16:55:43.700Z,3.27
2019-03-26T16:58:12.382Z,4.58
2019-03-26T17:00:41.048Z,5.83
2019-03-26T17:03:09.665Z,5.05
2019-03-26T17:05:38.358Z,2.27
2019-03-26T17:08:06.997Z,3.90
2019-03-26T17:10:35.681Z,3.75
2019-03-26T17:13:04.347Z,3.60
2019-03-26T17:15:33.024Z,4.25
2019-03-26T17:18:01.688Z,3.10
2019-03-26T17:20:30.286Z,3.62
2019-03-26T17:22:58.964Z,3.58
2019-03-26T17:25:27.641Z,3.95
2019-03-26T17:27:56.264Z,5.78
2019-03-26T17:30:24.930Z,7.40
2019-03-26T17:32:53.573Z,3.77
2019-03-26T17:35:22.213Z,6.33
2019-03-26T17:37:59.715Z,3.50
2019-03-26T17:40:21.520Z,3.60
2019-03-26T17:42:50.181Z,11.85
2019-03-26T17:45:18.877Z,57.53
2019-03-26T17:47:47.593Z,3.92
2019-03-26T17:50:16.349Z,2.30
2019-03-26T17:52:45.061Z,2.80
2019-03-26T17:55:13.757Z,2.62
2019-03-26T17:57:42.357Z,5.33
2019-03-26T18:00:12.964Z,6.30
2019-03-26T18:02:41.870Z,6.37
2019-03-26T18:05:13.803Z,3.72
2019-03-26T18:07:42.797Z,2.83
2019-03-26T18:10:11.489Z,4.33
2019-03-26T18:12:40.147Z,2.75
2019-03-26T18:15:08.922Z,1.55
2019-03-26T18:17:37.607Z,18.77
2019-03-26T18:20:06.261Z,3.20
2019-03-26T18:22:34.938Z,3.15
2019-03-26T18:25:04.008Z,1.80
2019-03-26T18:30:00.284Z,5.50
2019-03-26T18:32:28.757Z,5.70
2019-03-26T18:34:57.437Z,4.60
2019-03-26T18:37:26.120Z,4.40
2019-03-26T18:39:54.724Z,3.35
2019-03-26T18:42:23.507Z,4.67
2019-03-26T18:44:52.175Z,6.47
2019-03-26T18:47:20.906Z,7.30
2019-03-26T18:49:49.532Z,6.42
2019-03-26T18:52:18.262Z,5.10
2019-03-26T18:54:46.897Z,9.70
2019-03-26T18:57:15.590Z,10.30
2019-03-26T18:59:44.651Z,7.67
2019-03-26T19:04:40.750Z,11.28
2019-03-26T19:07:09.505Z,10.65
2019-03-26T19:09:38.249Z,9.30
2019-03-26T19:12:06.933Z,13.90
2019-03-26T19:14:35.618Z,13.28
2019-03-26T19:17:04.310Z,15.45
2019-03-26T19:19:32.990Z,11.57
2019-03-26T19:22:01.675Z,12.13
2019-03-26T19:24:30.334Z,11.15
2019-03-26T19:26:58.963Z,13.03
2019-03-26T19:29:27.640Z,16.95
2019-03-26T19:31:56.351Z,16.48
2019-03-26T19:34:25.025Z,20.25
2019-03-26T19:36:53.646Z,11.70
2019-03-26T19:39:22.247Z,20.08
2019-03-26T19:41:50.951Z,18.90
2019-03-26T19:44:19.645Z,16.23
2019-03-26T19:46:48.323Z,18.20
2019-03-26T19:49:16.992Z,21.73
2019-03-26T19:51:45.753Z,21.00
2019-03-26T19:54:14.358Z,18.35
2019-03-26T19:56:43.058Z,23.67
2019-03-26T19:59:11.755Z,22.00
2019-03-26T20:01:40.436Z,24.80
2019-03-26T20:04:09.134Z,24.85
2019-03-26T20:06:37.818Z,22.42
2019-03-26T20:09:07.264Z,27.93
2019-03-26T20:11:36.227Z,27.02
2019-03-26T20:14:04.934Z,29.50
2019-03-26T20:16:41.731Z,35.10
2019-03-26T20:19:04.611Z,30.20
2019-03-26T20:24:00.744Z,32.10
2019-03-26T20:26:29.464Z,26.65
2019-03-26T20:28:58.089Z,30.80
2019-03-26T20:31:26.761Z,29.30
2019-03-26T20:33:55.444Z,35.40
2019-03-26T20:36:24.113Z,25.02
2019-03-26T20:38:52.808Z,26.75
2019-03-26T20:41:21.411Z,27.55
2019-03-26T20:43:50.092Z,32.45
2019-03-26T20:46:18.804Z,35.63
2019-03-26T20:48:47.502Z,38.05
2019-03-26T20:51:16.180Z,34.23
2019-03-26T20:53:44.918Z,36.80
2019-03-26T20:56:13.671Z,39.50
2019-03-26T20:58:42.349Z,29.07
2019-03-26T21:01:11.096Z,30.48
2019-03-26T21:03:39.784Z,33.25
2019-03-26T21:06:08.402Z,39.40
2019-03-26T21:08:37.078Z,28.57
2019-03-26T21:11:05.684Z,29.10
2019-03-26T21:13:34.394Z,21.65
2019-03-26T21:16:03.085Z,34.90
2019-03-26T21:18:31.744Z,29.67
2019-03-26T21:21:00.437Z,35.73
2019-03-26T21:23:29.122Z,31.45
2019-03-26T21:25:57.794Z,32.63
2019-03-26T21:28:26.461Z,26.97
2019-03-26T21:30:55.134Z,26.97
2019-03-26T21:33:23.875Z,31.50
2019-03-26T21:35:55.444Z,26.17
2019-03-26T21:38:24.541Z,31.02
2019-03-26T21:40:53.225Z,30.90
2019-03-26T21:43:21.913Z,22.05
2019-03-26T21:45:50.596Z,30.27
2019-03-26T21:48:19.301Z,40.43
2019-03-26T21:50:48.001Z,34.50
2019-03-26T21:53:16.683Z,22.17
2019-03-26T21:55:45.363Z,37.58
2019-03-26T21:58:14.033Z,33.20
2019-03-26T22:00:44.321Z,32.55
2019-03-26T22:03:13.519Z,30.80
2019-03-26T22:05:42.277Z,30.35
2019-03-26T22:08:10.947Z,37.67
2019-03-26T22:10:39.633Z,23.52
2019-03-26T22:13:08.304Z,30.68
2019-03-26T22:15:36.928Z,28.42
2019-03-26T22:18:05.581Z,31.10
2019-03-26T22:20:34.260Z,31.23
2019-03-26T22:23:03.013Z,27.45
2019-03-26T22:25:31.554Z,28.25
2019-03-26T22:28:00.225Z,32.75
2019-03-26T22:30:28.930Z,29.87
2019-03-26T22:32:57.583Z,31.60
2019-03-26T22:35:26.279Z,30.77
2019-03-26T22:37:54.935Z,30.50
2019-03-26T22:40:23.632Z,21.65
2019-03-26T22:42:52.303Z,32.93
2019-03-26T22:45:21.017Z,27.05
2019-03-26T22:47:49.691Z,28.40
2019-03-26T22:50:18.645Z,24.23
2019-03-26T22:52:46.971Z,35.88
2019-03-26T22:55:15.638Z,55.45
2019-03-26T22:57:44.319Z,46.90
2019-03-26T23:00:19.823Z,29.12
2019-03-26T23:02:48.893Z,23.15
2019-03-26T23:05:17.545Z,27.80
2019-03-26T23:07:46.156Z,23.10
2019-03-26T23:10:14.963Z,29.57
2019-03-26T23:12:43.633Z,26.27
2019-03-26T23:15:14.901Z,23.30
2019-03-26T23:17:43.811Z,27.85
2019-03-26T23:20:12.472Z,30.12
2019-03-26T23:22:41.183Z,23.25
2019-03-26T23:25:09.849Z,27.58
2019-03-26T23:27:38.590Z,32.63
2019-03-26T23:30:07.363Z,26.27
2019-03-26T23:32:35.968Z,25.05
2019-03-26T23:35:05.010Z,30.57
2019-03-26T23:40:01.039Z,22.48
2019-03-26T23:42:29.680Z,18.55
2019-03-26T23:44:58.869Z,24.35
2019-03-26T23:47:27.900Z,21.70
2019-03-26T23:49:58.696Z,23.83
2019-03-26T23:52:29.206Z,21.55
2019-03-26T23:54:58.181Z,19.23
2019-03-26T23:57:26.861Z,21.25
2019-03-26T23:59:55.547Z,25.90
